createdAt,value
2023-02-27T00:02:13.002Z,2.92
2023-02-27T00:04:39.636Z,4.80
2023-02-27T00:07:07.271Z,2.00
2023-02-27T00:09:33.928Z,1.83
2023-02-27T00:12:00.580Z,1.75
2023-02-27T00:14:27.273Z,1.88
2023-02-27T00:16:53.805Z,2.58
2023-02-27T00:19:21.664Z,2.85
2023-02-27T00:21:48.350Z,1.88
2023-02-27T00:24:14.881Z,3.90
2023-02-27T00:26:41.380Z,4.07
2023-02-27T00:29:08.079Z,1.88
2023-02-27T00:31:34.836Z,2.47
2023-02-27T00:34:01.835Z,2.72
2023-02-27T00:36:28.499Z,1.25
2023-02-27T00:38:55.126Z,3.20
2023-02-27T00:41:21.739Z,1.77
2023-02-27T00:43:48.356Z,3.63
2023-02-27T00:46:15.062Z,4.38
2023-02-27T00:48:41.652Z,2.90
2023-02-27T00:51:08.239Z,3.08
2023-02-27T00:53:34.748Z,4.13
2023-02-27T00:56:01.268Z,2.15
2023-02-27T00:58:27.818Z,3.63
2023-02-27T01:00:54.342Z,3.28
2023-02-27T01:03:20.994Z,2.70
2023-02-27T01:05:47.616Z,2.20
2023-02-27T01:08:14.415Z,2.72
2023-02-27T01:10:40.922Z,4.22
2023-02-27T01:13:07.516Z,2.03
2023-02-27T01:15:34.181Z,3.13
2023-02-27T01:18:00.758Z,2.80
2023-02-27T01:20:27.427Z,3.25
2023-02-27T01:22:53.925Z,1.08
2023-02-27T01:25:20.424Z,2.22
2023-02-27T01:27:46.994Z,2.33
2023-02-27T01:30:15.783Z,1.85
2023-02-27T01:32:42.744Z,3.25
2023-02-27T01:35:09.582Z,1.02
2023-02-27T01:37:36.141Z,1.80
2023-02-27T01:40:03.865Z,2.17
2023-02-27T01:42:30.558Z,1.95
2023-02-27T01:45:29.043Z,1.52
2023-02-27T01:48:27.270Z,2.20
2023-02-27T01:51:19.153Z,1.88
2023-02-27T01:53:47.987Z,1.98
2023-02-27T01:56:19.138Z,1.63
2023-02-27T01:58:46.289Z,1.23
2023-02-27T02:01:13.024Z,1.25
2023-02-27T02:03:57.606Z,1.67
2023-02-27T02:06:24.336Z,1.35
2023-02-27T02:08:51.818Z,2.42
2023-02-27T02:11:19.546Z,0.85
2023-02-27T02:13:46.394Z,2.28
2023-02-27T02:16:25.732Z,5.18
2023-02-27T02:18:58.256Z,2.03
2023-02-27T02:21:28.054Z,1.88
2023-02-27T02:24:29.812Z,1.65
2023-02-27T02:27:08.389Z,1.65
2023-02-27T02:29:52.801Z,1.20
2023-02-27T02:32:22.393Z,2.42
2023-02-27T02:35:13.237Z,3.78
2023-02-27T02:38:05.651Z,4.32
2023-02-27T02:40:46.172Z,3.55
2023-02-27T02:43:17.883Z,1.70
2023-02-27T02:45:51.488Z,3.80
2023-02-27T02:48:27.675Z,3.97
2023-02-27T02:51:02.279Z,3.28
2023-02-27T02:53:36.981Z,1.35
2023-02-27T02:56:30.356Z,1.98
2023-02-27T02:58:58.187Z,1.05
2023-02-27T03:01:38.969Z,1.40
2023-02-27T03:04:13.611Z,1.15
2023-02-27T03:06:44.310Z,0.77
2023-02-27T03:09:18.260Z,1.00
2023-02-27T03:11:47.808Z,1.20
2023-02-27T03:14:14.302Z,2.40
2023-02-27T03:16:43.339Z,3.30
2023-02-27T03:19:20.549Z,1.42
2023-02-27T03:22:01.016Z,2.38
2023-02-27T03:24:34.456Z,5.03
2023-02-27T03:27:02.984Z,2.78
2023-02-27T03:29:41.294Z,1.60
2023-02-27T03:32:21.949Z,4.13
2023-02-27T03:34:48.764Z,1.50
2023-02-27T03:37:41.811Z,5.55
2023-02-27T03:40:20.695Z,1.42
2023-02-27T03:42:52.323Z,3.22
2023-02-27T03:45:35.097Z,3.28
2023-02-27T03:48:03.197Z,1.63
2023-02-27T03:50:29.813Z,4.05
2023-02-27T03:52:56.576Z,3.30
2023-02-27T03:55:30.715Z,2.15
2023-02-27T03:57:57.355Z,4.38
2023-02-27T04:00:25.211Z,2.60
2023-02-27T04:02:53.398Z,4.05
2023-02-27T04:05:20.895Z,1.17
2023-02-27T04:07:53.838Z,1.58
2023-02-27T04:10:41.607Z,3.38
2023-02-27T04:13:38.763Z,2.22
2023-02-27T04:16:17.837Z,2.75
2023-02-27T04:19:04.647Z,3.03
2023-02-27T04:21:43.314Z,2.05
2023-02-27T04:24:22.011Z,2.97
2023-02-27T04:26:56.528Z,5.93
2023-02-27T04:29:42.619Z,2.80
2023-02-27T04:32:33.147Z,2.20
2023-02-27T04:35:04.643Z,2.08
2023-02-27T04:37:37.645Z,4.38
2023-02-27T04:40:09.309Z,7.20
2023-02-27T04:42:40.291Z,7.30
2023-02-27T04:45:09.536Z,2.65
2023-02-27T04:47:40.296Z,4.82
2023-02-27T04:50:26.275Z,4.43
2023-02-27T04:53:03.674Z,2.30
2023-02-27T04:55:34.348Z,3.10
2023-02-27T04:58:04.926Z,2.10
2023-02-27T05:00:33.266Z,2.92
2023-02-27T05:03:04.692Z,5.35
2023-02-27T05:05:34.064Z,2.45
2023-02-27T05:08:05.470Z,2.63
2023-02-27T05:10:33.236Z,6.13
2023-02-27T05:13:03.387Z,4.28
2023-02-27T05:15:33.219Z,4.38
2023-02-27T05:18:04.941Z,1.65
2023-02-27T05:20:37.919Z,1.75
2023-02-27T05:23:33.688Z,2.33
2023-02-27T05:26:39.031Z,3.58
2023-02-27T05:29:11.570Z,2.10
2023-02-27T05:31:55.443Z,3.85
2023-02-27T05:34:24.259Z,3.30
2023-02-27T05:36:59.598Z,4.05
2023-02-27T05:39:30.102Z,5.82
2023-02-27T05:42:00.913Z,4.80
2023-02-27T05:44:33.671Z,3.97
2023-02-27T05:47:04.349Z,4.13
2023-02-27T05:49:37.584Z,3.55
2023-02-27T05:52:08.161Z,5.57
2023-02-27T05:55:04.743Z,4.18
2023-02-27T05:57:52.943Z,4.32
2023-02-27T06:01:07.260Z,4.03
2023-02-27T06:03:35.625Z,5.88
2023-02-27T06:06:05.216Z,3.65
2023-02-27T06:10:58.484Z,3.90
2023-02-27T06:13:26.394Z,4.53
2023-02-27T06:15:53.272Z,3.05
2023-02-27T06:18:19.970Z,3.28
2023-02-27T06:20:47.318Z,3.53
2023-02-27T06:23:14.018Z,3.00
2023-02-27T06:25:42.234Z,6.43
2023-02-27T06:28:09.391Z,3.83
2023-02-27T06:30:36.492Z,3.53
2023-02-27T06:33:04.361Z,2.08
2023-02-27T06:35:31.672Z,5.97
2023-02-27T06:38:05.136Z,3.05
2023-02-27T06:40:35.065Z,4.40
2023-02-27T06:43:05.118Z,2.08
2023-02-27T06:45:31.692Z,5.20
2023-02-27T06:47:58.222Z,4.35
2023-02-27T06:50:24.791Z,4.05
2023-02-27T06:52:51.419Z,5.00
2023-02-27T06:55:22.739Z,3.95
2023-02-27T06:57:49.690Z,4.88
2023-02-27T07:00:17.095Z,3.03
2023-02-27T07:02:43.750Z,1.95
2023-02-27T07:05:13.535Z,3.80
2023-02-27T07:07:40.602Z,3.42
2023-02-27T07:10:15.657Z,4.63
2023-02-27T07:12:42.423Z,4.32
2023-02-27T07:15:11.453Z,3.70
2023-02-27T07:17:38.121Z,3.75
2023-02-27T07:20:07.249Z,3.05
2023-02-27T07:22:34.016Z,7.25
2023-02-27T07:25:00.617Z,3.28
2023-02-27T07:27:28.977Z,4.10
2023-02-27T07:29:55.875Z,4.28
2023-02-27T07:32:23.696Z,4.63
2023-02-27T07:34:50.820Z,8.25
2023-02-27T07:37:18.011Z,7.75
2023-02-27T07:39:45.388Z,7.10
2023-02-27T07:42:13.001Z,8.02
2023-02-27T07:44:40.816Z,8.02
2023-02-27T07:47:07.995Z,7.45
2023-02-27T07:49:35.490Z,6.07
2023-02-27T07:52:02.834Z,6.75
2023-02-27T07:54:30.080Z,6.63
2023-02-27T07:56:57.179Z,6.28
2023-02-27T07:59:24.333Z,6.20
2023-02-27T08:01:50.951Z,4.18
2023-02-27T08:04:17.610Z,3.75
2023-02-27T08:06:45.081Z,4.75
2023-02-27T08:09:11.662Z,4.10
2023-02-27T08:11:38.305Z,5.28
2023-02-27T08:14:04.890Z,3.13
2023-02-27T08:16:32.464Z,4.40
2023-02-27T08:18:59.983Z,3.72
2023-02-27T08:21:27.309Z,4.30
2023-02-27T08:23:54.620Z,3.47
2023-02-27T08:26:21.611Z,2.90
2023-02-27T08:28:48.249Z,6.97
2023-02-27T08:31:14.864Z,7.82
2023-02-27T08:33:41.439Z,3.38
2023-02-27T08:36:08.409Z,3.05
2023-02-27T08:38:35.004Z,8.15
2023-02-27T08:41:01.787Z,5.57
2023-02-27T08:43:28.422Z,11.43
2023-02-27T08:45:55.010Z,3.55
2023-02-27T08:48:24.362Z,6.78
2023-02-27T08:50:51.012Z,6.05
2023-02-27T08:53:17.555Z,6.97
2023-02-27T08:55:44.364Z,4.63
2023-02-27T08:58:10.986Z,4.07
2023-02-27T09:00:37.569Z,5.82
2023-02-27T09:03:04.240Z,6.88
2023-02-27T09:05:31.499Z,7.65
2023-02-27T09:07:58.008Z,6.10
2023-02-27T09:10:24.726Z,5.55
2023-02-27T09:12:51.291Z,6.35
2023-02-27T09:15:18.065Z,12.20
2023-02-27T09:17:44.731Z,6.38
2023-02-27T09:20:12.281Z,7.72
2023-02-27T09:22:39.276Z,7.30
2023-02-27T09:25:06.610Z,4.95
2023-02-27T09:27:33.358Z,6.25
2023-02-27T09:29:59.879Z,7.80
2023-02-27T09:32:27.098Z,4.70
2023-02-27T09:34:54.103Z,7.65
2023-02-27T09:37:20.733Z,4.78
2023-02-27T09:39:47.537Z,5.95
2023-02-27T09:42:19.285Z,5.25
2023-02-27T09:45:04.756Z,4.25
2023-02-27T09:47:38.215Z,4.22
2023-02-27T09:50:08.981Z,7.32
2023-02-27T09:52:36.970Z,6.00
2023-02-27T09:55:12.430Z,11.80
2023-02-27T09:57:56.467Z,3.92
2023-02-27T10:00:48.715Z,6.80
2023-02-27T10:03:29.499Z,4.38
2023-02-27T10:05:59.247Z,3.30
2023-02-27T10:08:29.739Z,5.05
2023-02-27T10:11:06.099Z,8.18
2023-02-27T10:13:50.762Z,8.50
2023-02-27T10:16:19.789Z,5.82
2023-02-27T10:18:59.441Z,3.35
2023-02-27T10:21:32.005Z,7.07
2023-02-27T10:24:13.882Z,4.95
2023-02-27T10:26:42.466Z,6.22
2023-02-27T10:29:24.145Z,4.13
2023-02-27T10:32:18.698Z,5.75
2023-02-27T10:34:50.121Z,7.90
2023-02-27T10:37:18.814Z,5.95
2023-02-27T10:39:54.519Z,6.20
2023-02-27T10:42:22.079Z,4.60
2023-02-27T10:44:53.609Z,6.13
2023-02-27T10:47:25.001Z,6.03
2023-02-27T10:49:52.623Z,7.32
2023-02-27T10:52:19.352Z,5.95
2023-02-27T10:54:47.114Z,8.70
2023-02-27T10:57:33.717Z,5.05
2023-02-27T11:00:06.898Z,3.70
2023-02-27T11:02:38.884Z,7.55
2023-02-27T11:05:07.454Z,4.55
2023-02-27T11:07:36.753Z,5.17
2023-02-27T11:12:40.279Z,5.93
2023-02-27T11:15:15.808Z,4.97
2023-02-27T11:17:43.341Z,4.63
2023-02-27T11:20:32.584Z,4.85
2023-02-27T11:25:34.192Z,7.50
2023-02-27T11:28:23.810Z,5.72
2023-02-27T11:30:59.016Z,5.90
2023-02-27T11:33:26.655Z,6.30
2023-02-27T11:35:56.931Z,6.55
2023-02-27T11:38:27.075Z,6.05
2023-02-27T11:40:57.740Z,4.93
2023-02-27T11:43:25.772Z,4.70
2023-02-27T11:46:08.638Z,6.50
2023-02-27T11:48:51.919Z,4.88
2023-02-27T11:51:26.861Z,7.18
2023-02-27T11:53:53.498Z,5.50
2023-02-27T11:56:47.040Z,4.07
2023-02-27T11:59:22.862Z,7.70
2023-02-27T12:01:54.381Z,4.75
2023-02-27T12:04:24.860Z,4.38
2023-02-27T12:06:57.361Z,5.97
2023-02-27T12:09:42.612Z,11.07
2023-02-27T12:12:30.892Z,5.03
2023-02-27T12:15:12.572Z,7.60
2023-02-27T12:17:50.473Z,5.28
2023-02-27T12:20:36.632Z,9.95
2023-02-27T12:23:12.069Z,9.05
2023-02-27T12:25:41.258Z,6.38
2023-02-27T12:28:39.985Z,7.97
2023-02-27T12:31:35.110Z,7.07
2023-02-27T12:34:26.145Z,6.47
2023-02-27T12:36:53.885Z,5.90
2023-02-27T12:39:24.753Z,7.00
2023-02-27T12:42:24.562Z,7.60
2023-02-27T12:45:11.001Z,9.10
2023-02-27T12:47:50.335Z,10.57
2023-02-27T12:50:22.192Z,7.57
2023-02-27T12:53:07.210Z,5.25
2023-02-27T12:55:39.160Z,8.27
2023-02-27T12:58:21.027Z,10.95
2023-02-27T13:01:00.794Z,6.15
2023-02-27T13:03:36.751Z,4.00
2023-02-27T13:06:24.337Z,6.70
2023-02-27T13:08:53.746Z,7.20
2023-02-27T13:11:38.282Z,8.43
2023-02-27T13:14:12.850Z,9.63
2023-02-27T13:16:44.761Z,7.47
2023-02-27T13:19:15.798Z,12.18
2023-02-27T13:21:54.454Z,4.43
2023-02-27T13:24:44.468Z,10.05
2023-02-27T13:27:29.059Z,9.88
2023-02-27T13:30:08.645Z,7.13
2023-02-27T13:32:44.651Z,6.63
2023-02-27T13:35:29.763Z,9.10
2023-02-27T13:38:02.435Z,5.80
2023-02-27T13:40:33.539Z,7.72
2023-02-27T13:43:03.141Z,8.27
2023-02-27T13:45:49.865Z,5.05
2023-02-27T13:48:41.608Z,5.38
2023-02-27T13:51:10.864Z,5.07
2023-02-27T13:53:37.916Z,7.35
2023-02-27T13:56:22.717Z,8.35
2023-02-27T13:58:49.725Z,10.98
2023-02-27T14:01:27.327Z,6.28
2023-02-27T14:04:02.962Z,6.88
2023-02-27T14:06:29.717Z,8.48
2023-02-27T14:09:12.531Z,6.50
2023-02-27T14:11:41.355Z,5.38
2023-02-27T14:14:41.559Z,5.63
2023-02-27T14:17:11.382Z,4.80
2023-02-27T14:19:40.963Z,5.60
2023-02-27T14:22:16.958Z,5.13
2023-02-27T14:25:03.431Z,3.67
2023-02-27T14:27:36.888Z,8.25
2023-02-27T14:30:08.040Z,15.82
2023-02-27T14:32:36.341Z,8.45
2023-02-27T14:35:05.259Z,7.45
2023-02-27T14:37:32.178Z,9.95
2023-02-27T14:40:01.788Z,6.40
2023-02-27T14:42:53.749Z,8.98
2023-02-27T14:45:25.307Z,7.93
2023-02-27T14:47:52.838Z,9.40
2023-02-27T14:50:34.221Z,3.95
2023-02-27T14:53:04.169Z,4.28
2023-02-27T14:55:32.648Z,10.50
2023-02-27T14:58:31.578Z,6.38
2023-02-27T15:01:05.703Z,6.50
2023-02-27T15:03:42.183Z,4.32
2023-02-27T15:06:17.761Z,4.65
2023-02-27T15:08:48.426Z,6.15
2023-02-27T15:11:17.050Z,5.05
2023-02-27T15:13:44.574Z,5.63
2023-02-27T15:16:23.578Z,10.25
2023-02-27T15:18:59.323Z,4.55
2023-02-27T15:21:27.613Z,5.80
2023-02-27T15:23:59.957Z,5.68
2023-02-27T15:26:30.346Z,9.38
2023-02-27T15:28:59.911Z,4.38
2023-02-27T15:33:55.890Z,5.65
2023-02-27T15:36:25.480Z,4.28
2023-02-27T15:39:08.010Z,4.18
2023-02-27T15:41:34.971Z,8.48
2023-02-27T15:44:03.301Z,10.05
2023-02-27T15:46:30.309Z,5.78
2023-02-27T15:48:57.118Z,6.72
2023-02-27T15:51:26.286Z,5.90
2023-02-27T15:53:55.695Z,7.50
2023-02-27T15:56:27.689Z,6.22
2023-02-27T15:59:00.196Z,4.80
2023-02-27T16:01:35.361Z,8.38
2023-02-27T16:04:04.256Z,8.40
2023-02-27T16:06:34.504Z,4.80
2023-02-27T16:09:06.943Z,4.47
2023-02-27T16:11:35.393Z,4.25
2023-02-27T16:14:02.684Z,5.32
2023-02-27T16:16:36.228Z,7.78
2023-02-27T16:19:22.557Z,8.15
2023-02-27T16:22:06.799Z,8.18
2023-02-27T16:24:33.664Z,5.95
2023-02-27T16:27:01.767Z,5.78
2023-02-27T16:29:36.583Z,6.25
2023-02-27T16:32:03.959Z,5.70
2023-02-27T16:34:44.653Z,5.15
2023-02-27T16:37:48.152Z,9.45
2023-02-27T16:40:18.673Z,3.85
2023-02-27T16:42:45.936Z,4.43
2023-02-27T16:45:23.470Z,3.85
2023-02-27T16:47:52.721Z,6.63
2023-02-27T16:50:30.827Z,7.28
2023-02-27T16:52:57.676Z,6.72
2023-02-27T16:55:26.195Z,6.45
2023-02-27T16:57:52.946Z,3.70
2023-02-27T17:00:20.650Z,8.35
2023-02-27T17:02:48.360Z,7.93
2023-02-27T17:05:15.419Z,10.80
2023-02-27T17:07:42.687Z,9.90
2023-02-27T17:10:15.008Z,16.05
2023-02-27T17:12:43.765Z,11.63
2023-02-27T17:15:10.603Z,15.10
2023-02-27T17:17:37.184Z,10.55
2023-02-27T17:20:07.254Z,10.52
2023-02-27T17:22:41.568Z,14.75
2023-02-27T17:25:09.371Z,12.10
2023-02-27T17:27:36.148Z,12.25
2023-02-27T17:30:03.069Z,9.68
2023-02-27T17:32:29.630Z,8.50
2023-02-27T17:34:56.520Z,9.48
2023-02-27T17:37:23.620Z,9.23
2023-02-27T17:39:50.303Z,8.52
2023-02-27T17:42:18.805Z,5.38
2023-02-27T17:44:48.510Z,7.85
2023-02-27T17:47:15.404Z,6.40
2023-02-27T17:49:42.470Z,18.10
2023-02-27T17:52:09.524Z,9.35
2023-02-27T17:54:36.312Z,5.72
2023-02-27T17:57:04.928Z,9.00
2023-02-27T17:59:31.738Z,7.60
2023-02-27T18:01:59.433Z,5.82
2023-02-27T18:04:26.020Z,6.90
2023-02-27T18:06:52.999Z,7.10
2023-02-27T18:09:19.602Z,5.82
2023-02-27T18:11:46.265Z,6.75
2023-02-27T18:14:13.070Z,4.72
2023-02-27T18:16:39.669Z,7.60
2023-02-27T18:19:06.468Z,6.50
2023-02-27T18:21:33.557Z,9.68
2023-02-27T18:24:00.440Z,7.32
2023-02-27T18:26:30.948Z,6.68
2023-02-27T18:29:02.644Z,10.88
2023-02-27T18:31:33.510Z,5.03
2023-02-27T18:34:00.743Z,5.35
2023-02-27T18:36:29.079Z,6.13
2023-02-27T18:38:55.991Z,8.67
2023-02-27T18:41:22.577Z,8.55
2023-02-27T18:43:49.893Z,10.02
2023-02-27T18:46:16.641Z,4.20
2023-02-27T18:48:44.602Z,6.18
2023-02-27T18:51:14.626Z,7.07
2023-02-27T18:53:45.952Z,6.57
2023-02-27T18:56:13.899Z,9.77
2023-02-27T18:58:40.846Z,6.47
2023-02-27T19:01:07.823Z,6.25
2023-02-27T19:03:35.745Z,7.70
2023-02-27T19:06:02.436Z,6.28
2023-02-27T19:08:29.224Z,5.85
2023-02-27T19:10:56.961Z,5.05
2023-02-27T19:13:23.993Z,6.68
2023-02-27T19:15:50.610Z,5.43
2023-02-27T19:18:17.377Z,6.50
2023-02-27T19:20:43.977Z,5.15
2023-02-27T19:23:10.593Z,9.80
2023-02-27T19:25:37.287Z,6.80
2023-02-27T19:28:05.196Z,4.38
2023-02-27T19:30:31.805Z,3.40
2023-02-27T19:32:58.398Z,6.82
2023-02-27T19:35:25.035Z,5.47
2023-02-27T19:37:55.178Z,9.75
2023-02-27T19:40:22.367Z,4.97
2023-02-27T19:42:49.575Z,5.32
2023-02-27T19:45:16.477Z,6.43
2023-02-27T19:47:44.031Z,6.68
2023-02-27T19:50:11.246Z,10.13
2023-02-27T19:52:38.171Z,8.48
2023-02-27T19:55:05.253Z,6.53
2023-02-27T19:57:37.266Z,7.82
2023-02-27T20:00:06.712Z,7.53
2023-02-27T20:02:33.379Z,5.97
2023-02-27T20:05:00.101Z,7.65
2023-02-27T20:07:28.967Z,5.15
2023-02-27T20:09:56.520Z,5.15
2023-02-27T20:12:23.384Z,5.15
2023-02-27T20:14:50.270Z,5.22
2023-02-27T20:17:16.890Z,6.95
2023-02-27T20:19:43.528Z,5.15
2023-02-27T20:22:10.175Z,5.65
2023-02-27T20:24:36.699Z,6.25
2023-02-27T20:27:03.289Z,6.15
2023-02-27T20:29:29.813Z,7.43
2023-02-27T20:31:57.385Z,5.05
2023-02-27T20:34:26.492Z,6.38
2023-02-27T20:36:57.650Z,9.85
2023-02-27T20:39:24.798Z,5.88
2023-02-27T20:41:51.466Z,6.85
2023-02-27T20:44:18.112Z,8.70
2023-02-27T20:46:44.872Z,7.05
2023-02-27T20:49:14.439Z,8.00
2023-02-27T20:54:11.561Z,6.25
2023-02-27T20:56:41.410Z,6.43
2023-02-27T20:59:11.804Z,9.40
2023-02-27T21:01:38.744Z,9.13
2023-02-27T21:04:05.881Z,7.90
2023-02-27T21:06:32.900Z,10.15
2023-02-27T21:09:02.609Z,13.25
2023-02-27T21:11:32.976Z,11.43
2023-02-27T21:14:03.599Z,8.15
2023-02-27T21:16:30.207Z,8.60
2023-02-27T21:18:57.272Z,9.73
2023-02-27T21:21:27.243Z,12.57
2023-02-27T21:23:54.045Z,10.20
2023-02-27T21:26:37.862Z,9.25
2023-02-27T21:29:16.991Z,9.57
2023-02-27T21:31:45.641Z,12.32
2023-02-27T21:34:15.535Z,11.10
2023-02-27T21:36:43.666Z,6.90
2023-02-27T21:39:14.901Z,10.85
2023-02-27T21:41:42.146Z,10.23
2023-02-27T21:44:09.658Z,10.32
2023-02-27T21:46:36.308Z,11.55
2023-02-27T21:49:03.902Z,12.23
2023-02-27T21:51:39.994Z,11.18
2023-02-27T21:54:09.234Z,11.38
2023-02-27T21:56:35.920Z,13.43
2023-02-27T21:59:02.557Z,9.63
2023-02-27T22:01:29.739Z,11.05
2023-02-27T22:03:57.418Z,10.27
2023-02-27T22:06:25.834Z,13.02
2023-02-27T22:08:54.483Z,12.95
2023-02-27T22:11:21.054Z,8.57
2023-02-27T22:13:47.549Z,11.57
2023-02-27T22:16:14.279Z,14.35
2023-02-27T22:18:41.421Z,11.48
2023-02-27T22:21:10.399Z,14.50
2023-02-27T22:23:38.009Z,9.65
2023-02-27T22:26:10.296Z,10.88
2023-02-27T22:28:39.115Z,11.95
2023-02-27T22:31:15.005Z,14.40
2023-02-27T22:33:44.768Z,11.13
2023-02-27T22:36:13.808Z,9.95
2023-02-27T22:38:40.516Z,10.43
2023-02-27T22:41:10.376Z,11.02
2023-02-27T22:43:38.291Z,8.35
2023-02-27T22:46:05.676Z,10.88
2023-02-27T22:48:32.523Z,12.05
2023-02-27T22:51:07.251Z,10.20
2023-02-27T22:53:38.465Z,10.18
2023-02-27T22:56:07.019Z,10.32
2023-02-27T22:58:39.611Z,9.07
2023-02-27T23:01:26.370Z,12.65
2023-02-27T23:03:55.718Z,11.50
2023-02-27T23:06:25.020Z,7.20
2023-02-27T23:08:51.985Z,11.60
2023-02-27T23:11:19.640Z,8.07
2023-02-27T23:13:46.382Z,8.18
2023-02-27T23:16:13.799Z,9.50
2023-02-27T23:18:41.974Z,11.02
2023-02-27T23:21:09.483Z,8.55
2023-02-27T23:23:36.424Z,12.02
2023-02-27T23:26:04.531Z,12.50
2023-02-27T23:28:32.326Z,10.10
2023-02-27T23:30:59.617Z,10.77
2023-02-27T23:33:27.122Z,11.23
2023-02-27T23:35:53.998Z,8.98
2023-02-27T23:38:20.707Z,8.90
2023-02-27T23:40:47.600Z,8.25
2023-02-27T23:43:14.517Z,11.55
2023-02-27T23:45:41.516Z,10.80
2023-02-27T23:48:08.771Z,13.63
2023-02-27T23:50:38.210Z,10.00
2023-02-27T23:53:06.061Z,7.80
2023-02-27T23:55:34.865Z,9.93
2023-02-27T23:58:03.976Z,9.43
